Overview Statistics Trail Chart Weather Telemetry Raw packets
 

This is the latest recevied weather packets stored in our database for station/object KN6WGU. If no packets are shown the sender has not sent any weather packets the latest 10 day(s).

<< 91 92 93 94 95 96 97 >>
Time Temp. Humidity Pressure Rain* Wind** Luminosity Snow
1787937449 23.33° C 61% 1014.9 hPa 0 mm - 59 W/m² -
1787937146 22.78° C 61% 1015.1 hPa 0 mm - 61 W/m² -
1787936845 22.78° C 59% 1015.2 hPa 0 mm - 173 W/m² -
1787936540 22.78° C 66% 1015.2 hPa 0 mm - 42 W/m² -
1787936239 22.78° C 64% 1015.2 hPa 0 mm - 75 W/m² -
1787935935 23.33° C 61% 1015.2 hPa 0 mm - 39 W/m² -
1787935630 22.78° C 64% 1015.1 hPa 0 mm - 48 W/m² -
1787935327 22.22° C 66% 1015 hPa 0 mm - 42 W/m² -
1787935026 22.22° C 66% 1015 hPa 0 mm - 45 W/m² -
1787934721 22.22° C 69% 1014.9 hPa 0 mm - 41 W/m² -
1787934420 22.22° C 68% 1014.9 hPa 0 mm - 42 W/m² -
1787934115 21.67° C 68% 1015 hPa 0 mm - 42 W/m² -
1787933815 22.22° C 70% 1015 hPa 0 mm - 43 W/m² -
1787933510 22.22° C 69% 1014.9 hPa 0 mm - 44 W/m² -
1787933204 22.22° C 70% 1014.9 hPa 0 mm - 47 W/m² -
1787932899 22.22° C 70% 1014.9 hPa 0 mm - 45 W/m² -
1787932597 22.22° C 71% 1014.6 hPa 0 mm - 46 W/m² -
1787932297 21.67° C 70% 1014.9 hPa 0 mm - 76 W/m² -
1787931991 22.22° C 68% 1014.9 hPa 0 mm - 57 W/m² -
1787931692 22.22° C 66% 1014.8 hPa 0 mm - 48 W/m² -
1787931386 22.22° C 65% 1014.8 hPa 0 mm - 58 W/m² -
1787931081 22.22° C 66% 1014.7 hPa 0 mm - 47 W/m² -
1787930774 22.22° C 66% 1014.8 hPa 0 mm - 48 W/m² -
1787930474 22.22° C 65% 1014.8 hPa 0 mm - 90 W/m² -
1787930169 22.78° C 64% 1014.7 hPa 0 mm - 49 W/m² -

* Rain latest hour (hover to see other rain measurements)
** Current wind speed in m/s (hover to see current wind gust speed)